sensor_id;sensor_type;location;lat;lon;timestamp;P1;durP1;ratioP1;P2;durP2;ratioP2
65871;SDS011;52653;50.080;21.992;2023-02-01T00:02:31;10.30;;;5.80;;
65871;SDS011;52653;50.080;21.992;2023-02-01T00:05:26;9.60;;;6.00;;
65871;SDS011;52653;50.080;21.992;2023-02-01T00:08:17;9.60;;;6.00;;
65871;SDS011;52653;50.080;21.992;2023-02-01T00:11:10;9.60;;;5.90;;
65871;SDS011;52653;50.080;21.992;2023-02-01T00:14:03;8.90;;;5.80;;
65871;SDS011;52653;50.080;21.992;2023-02-01T00:16:57;8.80;;;5.20;;
65871;SDS011;52653;50.080;21.992;2023-02-01T00:19:50;8.90;;;5.80;;
65871;SDS011;52653;50.080;21.992;2023-02-01T00:22:43;8.70;;;5.50;;
65871;SDS011;52653;50.080;21.992;2023-02-01T00:25:35;9.40;;;5.90;;
65871;SDS011;52653;50.080;21.992;2023-02-01T00:28:30;9.20;;;5.70;;
65871;SDS011;52653;50.080;21.992;2023-02-01T00:31:23;8.60;;;5.40;;
65871;SDS011;52653;50.080;21.992;2023-02-01T00:34:13;11.50;;;6.40;;
65871;SDS011;52653;50.080;21.992;2023-02-01T00:37:06;8.60;;;5.70;;
65871;SDS011;52653;50.080;21.992;2023-02-01T00:39:59;9.80;;;5.40;;
65871;SDS011;52653;50.080;21.992;2023-02-01T00:42:53;7.60;;;5.10;;
65871;SDS011;52653;50.080;21.992;2023-02-01T00:45:47;9.10;;;5.80;;
65871;SDS011;52653;50.080;21.992;2023-02-01T00:48:31;9.90;;;5.40;;
65871;SDS011;52653;50.080;21.992;2023-02-01T00:51:20;8.20;;;5.20;;
65871;SDS011;52653;50.080;21.992;2023-02-01T00:54:14;9.10;;;5.20;;
65871;SDS011;52653;50.080;21.992;2023-02-01T00:57:00;8.20;;;4.30;;
65871;SDS011;52653;50.080;21.992;2023-02-01T00:59:53;7.90;;;4.40;;
65871;SDS011;52653;50.080;21.992;2023-02-01T01:02:46;6.30;;;3.90;;
65871;SDS011;52653;50.080;21.992;2023-02-01T01:05:39;6.60;;;4.20;;
65871;SDS011;52653;50.080;21.992;2023-02-01T01:08:32;7.00;;;3.80;;
65871;SDS011;52653;50.080;21.992;2023-02-01T01:11:25;6.50;;;4.00;;
65871;SDS011;52653;50.080;21.992;2023-02-01T01:14:20;6.70;;;3.50;;
65871;SDS011;52653;50.080;21.992;2023-02-01T01:17:02;7.00;;;3.90;;
65871;SDS011;52653;50.080;21.992;2023-02-01T01:19:55;6.90;;;3.80;;
65871;SDS011;52653;50.080;21.992;2023-02-01T01:22:47;6.60;;;3.80;;
65871;SDS011;52653;50.080;21.992;2023-02-01T01:25:40;7.30;;;4.30;;
65871;SDS011;52653;50.080;21.992;2023-02-01T01:28:32;7.20;;;4.00;;
65871;SDS011;52653;50.080;21.992;2023-02-01T01:31:16;7.00;;;4.30;;
65871;SDS011;52653;50.080;21.992;2023-02-01T01:34:11;6.10;;;3.80;;
65871;SDS011;52653;50.080;21.992;2023-02-01T01:37:04;8.10;;;4.60;;
65871;SDS011;52653;50.080;21.992;2023-02-01T01:39:57;8.60;;;5.20;;
65871;SDS011;52653;50.080;21.992;2023-02-01T01:42:49;8.10;;;4.10;;
65871;SDS011;52653;50.080;21.992;2023-02-01T01:45:45;8.60;;;4.50;;
65871;SDS011;52653;50.080;21.992;2023-02-01T01:48:39;7.70;;;4.50;;
65871;SDS011;52653;50.080;21.992;2023-02-01T01:51:35;7.20;;;4.80;;
65871;SDS011;52653;50.080;21.992;2023-02-01T01:54:32;8.90;;;5.40;;
65871;SDS011;52653;50.080;21.992;2023-02-01T01:57:08;10.80;;;5.10;;
65871;SDS011;52653;50.080;21.992;2023-02-01T02:00:07;9.60;;;5.30;;
65871;SDS011;52653;50.080;21.992;2023-02-01T02:02:44;8.10;;;5.40;;
65871;SDS011;52653;50.080;21.992;2023-02-01T02:05:38;10.00;;;5.80;;
65871;SDS011;52653;50.080;21.992;2023-02-01T02:08:31;7.80;;;4.70;;
65871;SDS011;52653;50.080;21.992;2023-02-01T02:11:23;9.70;;;5.60;;
65871;SDS011;52653;50.080;21.992;2023-02-01T02:14:16;8.60;;;5.10;;
65871;SDS011;52653;50.080;21.992;2023-02-01T02:17:07;8.20;;;5.10;;
65871;SDS011;52653;50.080;21.992;2023-02-01T02:20:34;6.30;;;4.00;;
65871;SDS011;52653;50.080;21.992;2023-02-01T02:27:15;7.70;;;5.00;;
65871;SDS011;52653;50.080;21.992;2023-02-01T02:30:34;9.00;;;4.90;;
65871;SDS011;52653;50.080;21.992;2023-02-01T02:33:40;6.90;;;4.40;;
65871;SDS011;52653;50.080;21.992;2023-02-01T02:36:43;7.50;;;5.00;;
65871;SDS011;52653;50.080;21.992;2023-02-01T02:39:48;6.60;;;4.40;;
65871;SDS011;52653;50.080;21.992;2023-02-01T02:42:58;8.50;;;5.00;;
65871;SDS011;52653;50.080;21.992;2023-02-01T02:46:15;7.10;;;4.60;;
65871;SDS011;52653;50.080;21.992;2023-02-01T02:49:32;7.30;;;4.40;;
65871;SDS011;52653;50.080;21.992;2023-02-01T02:53:08;7.80;;;4.40;;
65871;SDS011;52653;50.080;21.992;2023-02-01T02:56:21;7.40;;;4.30;;
65871;SDS011;52653;50.080;21.992;2023-02-01T02:59:33;8.10;;;4.20;;
65871;SDS011;52653;50.080;21.992;2023-02-01T03:02:45;8.10;;;4.20;;
65871;SDS011;52653;50.080;21.992;2023-02-01T03:05:56;8.10;;;4.00;;
65871;SDS011;52653;50.080;21.992;2023-02-01T03:08:49;6.40;;;3.70;;
65871;SDS011;52653;50.080;21.992;2023-02-01T03:11:47;7.30;;;4.10;;
65871;SDS011;52653;50.080;21.992;2023-02-01T03:14:54;7.70;;;3.70;;
65871;SDS011;52653;50.080;21.992;2023-02-01T03:17:53;7.70;;;4.00;;
65871;SDS011;52653;50.080;21.992;2023-02-01T03:20:49;5.80;;;3.60;;
65871;SDS011;52653;50.080;21.992;2023-02-01T03:23:44;7.80;;;4.50;;
65871;SDS011;52653;50.080;21.992;2023-02-01T03:26:41;7.30;;;3.30;;
65871;SDS011;52653;50.080;21.992;2023-02-01T03:29:40;8.30;;;3.50;;
65871;SDS011;52653;50.080;21.992;2023-02-01T03:32:29;6.50;;;3.60;;
65871;SDS011;52653;50.080;21.992;2023-02-01T03:35:45;6.90;;;3.50;;
65871;SDS011;52653;50.080;21.992;2023-02-01T03:38:48;7.60;;;3.70;;
65871;SDS011;52653;50.080;21.992;2023-02-01T03:41:47;7.60;;;3.10;;
65871;SDS011;52653;50.080;21.992;2023-02-01T03:44:38;7.00;;;3.20;;
65871;SDS011;52653;50.080;21.992;2023-02-01T03:47:37;8.20;;;3.10;;
65871;SDS011;52653;50.080;21.992;2023-02-01T03:50:34;6.30;;;2.80;;
65871;SDS011;52653;50.080;21.992;2023-02-01T03:53:29;7.70;;;3.10;;
65871;SDS011;52653;50.080;21.992;2023-02-01T03:56:26;6.20;;;2.70;;
65871;SDS011;52653;50.080;21.992;2023-02-01T03:59:20;7.60;;;3.10;;
65871;SDS011;52653;50.080;21.992;2023-02-01T04:02:13;6.00;;;2.50;;
65871;SDS011;52653;50.080;21.992;2023-02-01T04:05:07;4.80;;;2.30;;
65871;SDS011;52653;50.080;21.992;2023-02-01T04:08:00;5.70;;;2.50;;
65871;SDS011;52653;50.080;21.992;2023-02-01T04:10:54;7.30;;;2.20;;
65871;SDS011;52653;50.080;21.992;2023-02-01T04:13:47;8.30;;;2.90;;
65871;SDS011;52653;50.080;21.992;2023-02-01T04:16:40;5.90;;;2.70;;
65871;SDS011;52653;50.080;21.992;2023-02-01T04:19:35;6.50;;;3.10;;
65871;SDS011;52653;50.080;21.992;2023-02-01T04:22:28;8.20;;;3.60;;
65871;SDS011;52653;50.080;21.992;2023-02-01T04:25:22;15.10;;;6.60;;
65871;SDS011;52653;50.080;21.992;2023-02-01T04:28:15;12.20;;;5.70;;
65871;SDS011;52653;50.080;21.992;2023-02-01T04:31:09;9.30;;;4.80;;
65871;SDS011;52653;50.080;21.992;2023-02-01T04:33:47;11.00;;;5.00;;
65871;SDS011;52653;50.080;21.992;2023-02-01T04:36:40;10.80;;;4.30;;
65871;SDS011;52653;50.080;21.992;2023-02-01T04:39:34;6.60;;;3.20;;
65871;SDS011;52653;50.080;21.992;2023-02-01T04:42:19;9.70;;;4.10;;
65871;SDS011;52653;50.080;21.992;2023-02-01T04:45:13;9.80;;;3.90;;
65871;SDS011;52653;50.080;21.992;2023-02-01T04:48:06;7.30;;;2.90;;
65871;SDS011;52653;50.080;21.992;2023-02-01T04:50:53;9.00;;;4.00;;
65871;SDS011;52653;50.080;21.992;2023-02-01T04:53:46;9.60;;;3.90;;
65871;SDS011;52653;50.080;21.992;2023-02-01T04:56:39;8.20;;;3.50;;
65871;SDS011;52653;50.080;21.992;2023-02-01T04:59:35;6.80;;;3.00;;
65871;SDS011;52653;50.080;21.992;2023-02-01T05:02:29;10.30;;;2.70;;
65871;SDS011;52653;50.080;21.992;2023-02-01T05:05:15;7.00;;;2.90;;
65871;SDS011;52653;50.080;21.992;2023-02-01T05:08:08;8.10;;;2.60;;
65871;SDS011;52653;50.080;21.992;2023-02-01T05:11:01;9.40;;;2.40;;
65871;SDS011;52653;50.080;21.992;2023-02-01T05:13:54;9.00;;;3.20;;
65871;SDS011;52653;50.080;21.992;2023-02-01T05:16:48;8.60;;;2.50;;
65871;SDS011;52653;50.080;21.992;2023-02-01T05:19:40;7.60;;;2.20;;
65871;SDS011;52653;50.080;21.992;2023-02-01T05:22:26;11.00;;;2.50;;
65871;SDS011;52653;50.080;21.992;2023-02-01T05:25:19;4.90;;;1.70;;
65871;SDS011;52653;50.080;21.992;2023-02-01T05:28:05;10.10;;;2.30;;
65871;SDS011;52653;50.080;21.992;2023-02-01T05:30:58;6.40;;;2.00;;
65871;SDS011;52653;50.080;21.992;2023-02-01T05:33:51;9.40;;;2.10;;
65871;SDS011;52653;50.080;21.992;2023-02-01T05:36:44;6.70;;;2.30;;
65871;SDS011;52653;50.080;21.992;2023-02-01T05:39:29;7.10;;;2.70;;
65871;SDS011;52653;50.080;21.992;2023-02-01T05:42:15;8.80;;;2.50;;
65871;SDS011;52653;50.080;21.992;2023-02-01T05:45:09;14.40;;;5.40;;
65871;SDS011;52653;50.080;21.992;2023-02-01T05:47:56;8.10;;;3.20;;
65871;SDS011;52653;50.080;21.992;2023-02-01T05:50:50;10.80;;;3.90;;
65871;SDS011;52653;50.080;21.992;2023-02-01T05:53:44;10.10;;;3.90;;
65871;SDS011;52653;50.080;21.992;2023-02-01T05:56:39;14.20;;;4.30;;
65871;SDS011;52653;50.080;21.992;2023-02-01T05:59:33;12.00;;;3.50;;
65871;SDS011;52653;50.080;21.992;2023-02-01T06:02:10;8.20;;;3.10;;
65871;SDS011;52653;50.080;21.992;2023-02-01T06:05:04;14.80;;;3.40;;
65871;SDS011;52653;50.080;21.992;2023-02-01T06:07:57;11.50;;;3.70;;
65871;SDS011;52653;50.080;21.992;2023-02-01T06:10:49;8.30;;;3.10;;
65871;SDS011;52653;50.080;21.992;2023-02-01T06:14:08;8.90;;;2.90;;
65871;SDS011;52653;50.080;21.992;2023-02-01T06:17:02;9.60;;;3.60;;
65871;SDS011;52653;50.080;21.992;2023-02-01T06:19:40;7.10;;;2.70;;
65871;SDS011;52653;50.080;21.992;2023-02-01T06:22:34;12.80;;;3.20;;
65871;SDS011;52653;50.080;21.992;2023-02-01T06:25:29;7.80;;;2.90;;
65871;SDS011;52653;50.080;21.992;2023-02-01T06:28:22;5.50;;;2.00;;
65871;SDS011;52653;50.080;21.992;2023-02-01T06:30:56;7.80;;;2.10;;
65871;SDS011;52653;50.080;21.992;2023-02-01T06:33:53;8.00;;;2.60;;
65871;SDS011;52653;50.080;21.992;2023-02-01T06:36:47;13.40;;;6.30;;
65871;SDS011;52653;50.080;21.992;2023-02-01T06:39:34;9.10;;;3.90;;
65871;SDS011;52653;50.080;21.992;2023-02-01T06:42:28;10.90;;;4.10;;
65871;SDS011;52653;50.080;21.992;2023-02-01T06:45:22;18.20;;;7.20;;
65871;SDS011;52653;50.080;21.992;2023-02-01T06:48:15;20.30;;;7.50;;
65871;SDS011;52653;50.080;21.992;2023-02-01T06:51:15;15.40;;;6.10;;
65871;SDS011;52653;50.080;21.992;2023-02-01T06:54:05;11.00;;;4.60;;
65871;SDS011;52653;50.080;21.992;2023-02-01T06:56:58;16.30;;;5.30;;
65871;SDS011;52653;50.080;21.992;2023-02-01T06:59:44;11.20;;;4.50;;
65871;SDS011;52653;50.080;21.992;2023-02-01T07:02:38;9.90;;;3.70;;
65871;SDS011;52653;50.080;21.992;2023-02-01T07:05:31;11.20;;;3.00;;
65871;SDS011;52653;50.080;21.992;2023-02-01T07:08:27;13.30;;;4.90;;
65871;SDS011;52653;50.080;21.992;2023-02-01T07:11:16;13.10;;;4.10;;
65871;SDS011;52653;50.080;21.992;2023-02-01T07:14:02;11.70;;;4.40;;
65871;SDS011;52653;50.080;21.992;2023-02-01T07:16:55;11.10;;;4.30;;
65871;SDS011;52653;50.080;21.992;2023-02-01T07:19:48;10.80;;;4.00;;
65871;SDS011;52653;50.080;21.992;2023-02-01T07:22:41;14.10;;;5.60;;
65871;SDS011;52653;50.080;21.992;2023-02-01T07:25:35;13.10;;;5.20;;
65871;SDS011;52653;50.080;21.992;2023-02-01T07:28:28;15.00;;;5.60;;
65871;SDS011;52653;50.080;21.992;2023-02-01T07:31:23;11.00;;;4.90;;
65871;SDS011;52653;50.080;21.992;2023-02-01T07:34:18;16.20;;;5.60;;
65871;SDS011;52653;50.080;21.992;2023-02-01T07:37:10;8.30;;;3.90;;
65871;SDS011;52653;50.080;21.992;2023-02-01T07:40:04;13.10;;;5.50;;
65871;SDS011;52653;50.080;21.992;2023-02-01T07:42:51;13.70;;;6.40;;
65871;SDS011;52653;50.080;21.992;2023-02-01T07:45:49;12.00;;;4.70;;
65871;SDS011;52653;50.080;21.992;2023-02-01T07:48:43;12.10;;;4.50;;
65871;SDS011;52653;50.080;21.992;2023-02-01T07:51:36;9.80;;;4.20;;
65871;SDS011;52653;50.080;21.992;2023-02-01T07:54:29;14.30;;;4.70;;
65871;SDS011;52653;50.080;21.992;2023-02-01T07:57:22;15.50;;;4.90;;
65871;SDS011;52653;50.080;21.992;2023-02-01T08:00:17;11.60;;;3.90;;
65871;SDS011;52653;50.080;21.992;2023-02-01T08:03:28;10.70;;;4.20;;
65871;SDS011;52653;50.080;21.992;2023-02-01T08:06:21;13.40;;;4.20;;
65871;SDS011;52653;50.080;21.992;2023-02-01T08:09:15;14.70;;;5.20;;
65871;SDS011;52653;50.080;21.992;2023-02-01T08:12:01;13.70;;;4.50;;
65871;SDS011;52653;50.080;21.992;2023-02-01T08:14:54;18.20;;;5.90;;
65871;SDS011;52653;50.080;21.992;2023-02-01T08:17:48;13.40;;;5.80;;
65871;SDS011;52653;50.080;21.992;2023-02-01T08:20:41;13.10;;;5.40;;
65871;SDS011;52653;50.080;21.992;2023-02-01T08:23:29;13.60;;;6.00;;
65871;SDS011;52653;50.080;21.992;2023-02-01T08:26:22;15.00;;;6.20;;
65871;SDS011;52653;50.080;21.992;2023-02-01T08:29:09;17.80;;;5.90;;
65871;SDS011;52653;50.080;21.992;2023-02-01T08:32:04;13.80;;;5.30;;
65871;SDS011;52653;50.080;21.992;2023-02-01T08:34:57;11.90;;;5.30;;
65871;SDS011;52653;50.080;21.992;2023-02-01T08:37:50;14.10;;;5.90;;
65871;SDS011;52653;50.080;21.992;2023-02-01T08:40:43;13.00;;;5.70;;
65871;SDS011;52653;50.080;21.992;2023-02-01T08:43:36;12.80;;;4.80;;
65871;SDS011;52653;50.080;21.992;2023-02-01T08:46:29;12.70;;;5.20;;
65871;SDS011;52653;50.080;21.992;2023-02-01T08:49:22;12.60;;;5.50;;
65871;SDS011;52653;50.080;21.992;2023-02-01T08:52:07;11.50;;;5.00;;
65871;SDS011;52653;50.080;21.992;2023-02-01T08:55:05;11.70;;;5.00;;
65871;SDS011;52653;50.080;21.992;2023-02-01T08:57:59;11.80;;;4.70;;
65871;SDS011;52653;50.080;21.992;2023-02-01T09:00:54;8.90;;;4.40;;
65871;SDS011;52653;50.080;21.992;2023-02-01T09:03:46;13.60;;;5.10;;
65871;SDS011;52653;50.080;21.992;2023-02-01T09:06:41;13.20;;;5.30;;
65871;SDS011;52653;50.080;21.992;2023-02-01T09:09:37;11.60;;;4.40;;
65871;SDS011;52653;50.080;21.992;2023-02-01T09:12:39;11.00;;;4.50;;
65871;SDS011;52653;50.080;21.992;2023-02-01T09:15:32;12.80;;;4.70;;
65871;SDS011;52653;50.080;21.992;2023-02-01T09:18:25;11.30;;;4.20;;
65871;SDS011;52653;50.080;21.992;2023-02-01T09:21:20;11.90;;;4.40;;
65871;SDS011;52653;50.080;21.992;2023-02-01T09:24:03;9.90;;;3.50;;
65871;SDS011;52653;50.080;21.992;2023-02-01T09:26:57;13.10;;;5.10;;
65871;SDS011;52653;50.080;21.992;2023-02-01T09:29:51;14.10;;;4.60;;
65871;SDS011;52653;50.080;21.992;2023-02-01T09:32:42;13.10;;;4.30;;
65871;SDS011;52653;50.080;21.992;2023-02-01T09:35:36;12.40;;;5.20;;
65871;SDS011;52653;50.080;21.992;2023-02-01T09:38:30;11.80;;;4.70;;
65871;SDS011;52653;50.080;21.992;2023-02-01T09:41:26;14.10;;;5.30;;
65871;SDS011;52653;50.080;21.992;2023-02-01T09:44:32;11.30;;;3.90;;
65871;SDS011;52653;50.080;21.992;2023-02-01T09:47:39;10.40;;;3.60;;
65871;SDS011;52653;50.080;21.992;2023-02-01T09:50:37;12.90;;;4.40;;
65871;SDS011;52653;50.080;21.992;2023-02-01T09:53:35;12.20;;;5.40;;
65871;SDS011;52653;50.080;21.992;2023-02-01T09:56:35;18.20;;;6.50;;
65871;SDS011;52653;50.080;21.992;2023-02-01T09:59:31;16.60;;;6.40;;
65871;SDS011;52653;50.080;21.992;2023-02-01T10:02:30;21.60;;;8.40;;
65871;SDS011;52653;50.080;21.992;2023-02-01T10:05:35;19.00;;;8.10;;
65871;SDS011;52653;50.080;21.992;2023-02-01T10:08:41;14.60;;;5.20;;
65871;SDS011;52653;50.080;21.992;2023-02-01T10:12:00;12.40;;;6.10;;
65871;SDS011;52653;50.080;21.992;2023-02-01T10:15:16;13.10;;;5.70;;
65871;SDS011;52653;50.080;21.992;2023-02-01T10:18:21;12.90;;;4.90;;
65871;SDS011;52653;50.080;21.992;2023-02-01T10:21:18;19.60;;;6.60;;
65871;SDS011;52653;50.080;21.992;2023-02-01T10:24:17;17.90;;;6.30;;
65871;SDS011;52653;50.080;21.992;2023-02-01T10:27:27;14.40;;;5.50;;
65871;SDS011;52653;50.080;21.992;2023-02-01T10:30:25;13.00;;;5.50;;
65871;SDS011;52653;50.080;21.992;2023-02-01T10:33:30;16.70;;;5.50;;
65871;SDS011;52653;50.080;21.992;2023-02-01T10:36:28;11.50;;;5.00;;
65871;SDS011;52653;50.080;21.992;2023-02-01T10:39:24;13.70;;;5.20;;
65871;SDS011;52653;50.080;21.992;2023-02-01T10:42:18;13.40;;;5.90;;
65871;SDS011;52653;50.080;21.992;2023-02-01T10:45:15;16.70;;;6.10;;
65871;SDS011;52653;50.080;21.992;2023-02-01T10:48:11;13.90;;;5.20;;
65871;SDS011;52653;50.080;21.992;2023-02-01T10:51:05;10.60;;;4.60;;
65871;SDS011;52653;50.080;21.992;2023-02-01T10:54:03;13.00;;;4.90;;
65871;SDS011;52653;50.080;21.992;2023-02-01T10:57:04;13.10;;;5.60;;
65871;SDS011;52653;50.080;21.992;2023-02-01T11:00:00;16.00;;;6.20;;
65871;SDS011;52653;50.080;21.992;2023-02-01T11:06:27;16.60;;;5.80;;
65871;SDS011;52653;50.080;21.992;2023-02-01T11:09:24;12.30;;;6.50;;
65871;SDS011;52653;50.080;21.992;2023-02-01T11:12:22;12.80;;;5.50;;
65871;SDS011;52653;50.080;21.992;2023-02-01T11:15:19;13.30;;;4.30;;
65871;SDS011;52653;50.080;21.992;2023-02-01T11:18:17;11.20;;;5.60;;
65871;SDS011;52653;50.080;21.992;2023-02-01T11:21:09;14.60;;;4.60;;
65871;SDS011;52653;50.080;21.992;2023-02-01T11:24:06;14.50;;;5.00;;
65871;SDS011;52653;50.080;21.992;2023-02-01T11:27:12;12.20;;;3.70;;
65871;SDS011;52653;50.080;21.992;2023-02-01T11:30:17;12.50;;;4.60;;
65871;SDS011;52653;50.080;21.992;2023-02-01T11:33:17;10.30;;;4.20;;
65871;SDS011;52653;50.080;21.992;2023-02-01T11:36:15;9.20;;;4.30;;
65871;SDS011;52653;50.080;21.992;2023-02-01T11:39:19;11.80;;;5.00;;
65871;SDS011;52653;50.080;21.992;2023-02-01T11:42:17;11.60;;;5.20;;
65871;SDS011;52653;50.080;21.992;2023-02-01T11:45:18;13.00;;;5.30;;
65871;SDS011;52653;50.080;21.992;2023-02-01T11:48:15;9.80;;;3.80;;
65871;SDS011;52653;50.080;21.992;2023-02-01T11:51:19;11.60;;;5.00;;
65871;SDS011;52653;50.080;21.992;2023-02-01T11:54:28;10.20;;;3.50;;
65871;SDS011;52653;50.080;21.992;2023-02-01T11:57:37;8.10;;;3.60;;
65871;SDS011;52653;50.080;21.992;2023-02-01T12:07:31;11.80;;;4.40;;
65871;SDS011;52653;50.080;21.992;2023-02-01T12:10:38;10.60;;;3.60;;
65871;SDS011;52653;50.080;21.992;2023-02-01T12:13:43;10.60;;;5.00;;
65871;SDS011;52653;50.080;21.992;2023-02-01T12:16:48;13.10;;;4.80;;
65871;SDS011;52653;50.080;21.992;2023-02-01T12:19:59;9.70;;;4.10;;
65871;SDS011;52653;50.080;21.992;2023-02-01T12:23:01;10.50;;;3.80;;
65871;SDS011;52653;50.080;21.992;2023-02-01T12:26:12;11.30;;;4.70;;
65871;SDS011;52653;50.080;21.992;2023-02-01T12:29:32;9.30;;;4.50;;
65871;SDS011;52653;50.080;21.992;2023-02-01T12:32:39;11.50;;;3.90;;
65871;SDS011;52653;50.080;21.992;2023-02-01T12:35:47;10.50;;;3.80;;
65871;SDS011;52653;50.080;21.992;2023-02-01T12:38:54;11.20;;;4.20;;
65871;SDS011;52653;50.080;21.992;2023-02-01T12:41:58;10.00;;;4.10;;
65871;SDS011;52653;50.080;21.992;2023-02-01T12:45:02;12.00;;;3.70;;
65871;SDS011;52653;50.080;21.992;2023-02-01T12:48:12;8.80;;;3.70;;
65871;SDS011;52653;50.080;21.992;2023-02-01T12:51:11;9.70;;;3.40;;
65871;SDS011;52653;50.080;21.992;2023-02-01T12:54:11;8.50;;;3.90;;
65871;SDS011;52653;50.080;21.992;2023-02-01T12:57:11;12.30;;;4.50;;
65871;SDS011;52653;50.080;21.992;2023-02-01T13:00:13;13.60;;;5.50;;
65871;SDS011;52653;50.080;21.992;2023-02-01T13:03:17;9.90;;;4.70;;
65871;SDS011;52653;50.080;21.992;2023-02-01T13:06:22;12.30;;;4.40;;
65871;SDS011;52653;50.080;21.992;2023-02-01T13:09:21;10.80;;;4.60;;
65871;SDS011;52653;50.080;21.992;2023-02-01T13:12:17;12.80;;;4.90;;
65871;SDS011;52653;50.080;21.992;2023-02-01T13:15:13;11.10;;;4.10;;
65871;SDS011;52653;50.080;21.992;2023-02-01T13:18:11;11.30;;;4.70;;
65871;SDS011;52653;50.080;21.992;2023-02-01T13:21:03;9.60;;;4.50;;
65871;SDS011;52653;50.080;21.992;2023-02-01T13:23:49;8.70;;;3.90;;
65871;SDS011;52653;50.080;21.992;2023-02-01T13:26:36;12.60;;;4.90;;
65871;SDS011;52653;50.080;21.992;2023-02-01T13:29:29;11.30;;;4.90;;
65871;SDS011;52653;50.080;21.992;2023-02-01T13:39:33;14.20;;;6.60;;
65871;SDS011;52653;50.080;21.992;2023-02-01T13:42:43;18.30;;;7.30;;
65871;SDS011;52653;50.080;21.992;2023-02-01T13:45:23;15.90;;;6.50;;
65871;SDS011;52653;50.080;21.992;2023-02-01T13:48:20;13.50;;;5.30;;
65871;SDS011;52653;50.080;21.992;2023-02-01T13:51:17;14.70;;;6.40;;
65871;SDS011;52653;50.080;21.992;2023-02-01T13:54:32;11.50;;;5.20;;
65871;SDS011;52653;50.080;21.992;2023-02-01T13:57:33;10.10;;;4.20;;
65871;SDS011;52653;50.080;21.992;2023-02-01T14:00:29;11.80;;;5.60;;
65871;SDS011;52653;50.080;21.992;2023-02-01T14:03:42;13.30;;;4.70;;
65871;SDS011;52653;50.080;21.992;2023-02-01T14:06:44;10.70;;;5.30;;
65871;SDS011;52653;50.080;21.992;2023-02-01T14:09:46;13.80;;;6.30;;
65871;SDS011;52653;50.080;21.992;2023-02-01T14:12:46;14.00;;;6.90;;
65871;SDS011;52653;50.080;21.992;2023-02-01T14:15:40;14.30;;;6.70;;
65871;SDS011;52653;50.080;21.992;2023-02-01T14:19:00;17.00;;;8.30;;
65871;SDS011;52653;50.080;21.992;2023-02-01T14:21:59;17.30;;;7.90;;
65871;SDS011;52653;50.080;21.992;2023-02-01T14:25:16;18.90;;;7.20;;
65871;SDS011;52653;50.080;21.992;2023-02-01T14:27:53;17.10;;;7.10;;
65871;SDS011;52653;50.080;21.992;2023-02-01T14:30:36;15.90;;;8.50;;
65871;SDS011;52653;50.080;21.992;2023-02-01T14:33:40;18.00;;;8.60;;
65871;SDS011;52653;50.080;21.992;2023-02-01T14:36:40;15.00;;;7.30;;
65871;SDS011;52653;50.080;21.992;2023-02-01T14:39:38;15.80;;;8.10;;
65871;SDS011;52653;50.080;21.992;2023-02-01T14:42:50;16.50;;;7.90;;
65871;SDS011;52653;50.080;21.992;2023-02-01T14:45:49;20.20;;;9.10;;
65871;SDS011;52653;50.080;21.992;2023-02-01T14:48:45;16.20;;;8.40;;
65871;SDS011;52653;50.080;21.992;2023-02-01T14:51:40;13.10;;;6.50;;
65871;SDS011;52653;50.080;21.992;2023-02-01T14:54:34;14.20;;;8.30;;
65871;SDS011;52653;50.080;21.992;2023-02-01T14:57:28;13.00;;;7.30;;
65871;SDS011;52653;50.080;21.992;2023-02-01T15:00:25;15.20;;;7.50;;
65871;SDS011;52653;50.080;21.992;2023-02-01T15:03:15;14.90;;;8.60;;
65871;SDS011;52653;50.080;21.992;2023-02-01T15:06:12;19.30;;;11.60;;
65871;SDS011;52653;50.080;21.992;2023-02-01T15:09:26;14.90;;;9.80;;
65871;SDS011;52653;50.080;21.992;2023-02-01T15:12:24;19.50;;;12.40;;
65871;SDS011;52653;50.080;21.992;2023-02-01T15:15:22;14.60;;;7.30;;
65871;SDS011;52653;50.080;21.992;2023-02-01T15:18:16;14.50;;;7.40;;
65871;SDS011;52653;50.080;21.992;2023-02-01T15:21:16;12.80;;;7.20;;
65871;SDS011;52653;50.080;21.992;2023-02-01T15:24:23;15.70;;;8.20;;
65871;SDS011;52653;50.080;21.992;2023-02-01T15:27:17;15.50;;;9.20;;
65871;SDS011;52653;50.080;21.992;2023-02-01T15:30:16;15.60;;;8.70;;
65871;SDS011;52653;50.080;21.992;2023-02-01T15:33:15;12.40;;;7.90;;
65871;SDS011;52653;50.080;21.992;2023-02-01T15:36:10;12.50;;;6.80;;
65871;SDS011;52653;50.080;21.992;2023-02-01T15:42:22;18.70;;;11.00;;
65871;SDS011;52653;50.080;21.992;2023-02-01T15:44:57;14.20;;;7.50;;
65871;SDS011;52653;50.080;21.992;2023-02-01T15:47:50;13.20;;;7.90;;
65871;SDS011;52653;50.080;21.992;2023-02-01T15:50:25;19.20;;;9.90;;
65871;SDS011;52653;50.080;21.992;2023-02-01T15:53:23;12.40;;;7.90;;
65871;SDS011;52653;50.080;21.992;2023-02-01T15:56:25;14.00;;;8.30;;
65871;SDS011;52653;50.080;21.992;2023-02-01T15:59:21;14.50;;;9.10;;
65871;SDS011;52653;50.080;21.992;2023-02-01T16:02:40;18.60;;;11.10;;
65871;SDS011;52653;50.080;21.992;2023-02-01T16:05:44;19.90;;;10.30;;
65871;SDS011;52653;50.080;21.992;2023-02-01T16:08:50;14.60;;;6.80;;
65871;SDS011;52653;50.080;21.992;2023-02-01T16:11:46;17.50;;;9.70;;
65871;SDS011;52653;50.080;21.992;2023-02-01T16:14:28;13.20;;;9.40;;
65871;SDS011;52653;50.080;21.992;2023-02-01T16:17:22;12.80;;;8.10;;
65871;SDS011;52653;50.080;21.992;2023-02-01T16:20:14;15.80;;;9.60;;
65871;SDS011;52653;50.080;21.992;2023-02-01T16:22:58;16.10;;;9.80;;
65871;SDS011;52653;50.080;21.992;2023-02-01T16:25:51;17.70;;;11.90;;
65871;SDS011;52653;50.080;21.992;2023-02-01T16:28:43;16.10;;;10.90;;
65871;SDS011;52653;50.080;21.992;2023-02-01T16:31:38;16.80;;;10.80;;
65871;SDS011;52653;50.080;21.992;2023-02-01T16:34:30;22.40;;;13.70;;
65871;SDS011;52653;50.080;21.992;2023-02-01T16:37:26;34.00;;;18.30;;
65871;SDS011;52653;50.080;21.992;2023-02-01T16:40:21;114.20;;;46.00;;
65871;SDS011;52653;50.080;21.992;2023-02-01T16:43:15;62.30;;;28.20;;
65871;SDS011;52653;50.080;21.992;2023-02-01T16:46:11;51.30;;;22.40;;
65871;SDS011;52653;50.080;21.992;2023-02-01T16:49:02;23.90;;;14.10;;
65871;SDS011;52653;50.080;21.992;2023-02-01T16:51:42;24.50;;;15.10;;
65871;SDS011;52653;50.080;21.992;2023-02-01T16:54:34;23.70;;;13.90;;
65871;SDS011;52653;50.080;21.992;2023-02-01T16:57:28;18.90;;;12.40;;
65871;SDS011;52653;50.080;21.992;2023-02-01T17:00:22;26.80;;;17.40;;
65871;SDS011;52653;50.080;21.992;2023-02-01T17:03:18;30.90;;;22.10;;
65871;SDS011;52653;50.080;21.992;2023-02-01T17:06:06;26.90;;;16.00;;
65871;SDS011;52653;50.080;21.992;2023-02-01T17:09:01;17.20;;;10.30;;
65871;SDS011;52653;50.080;21.992;2023-02-01T17:11:53;17.00;;;9.00;;
65871;SDS011;52653;50.080;21.992;2023-02-01T17:14:47;15.90;;;8.20;;
65871;SDS011;52653;50.080;21.992;2023-02-01T17:17:40;15.20;;;7.90;;
65871;SDS011;52653;50.080;21.992;2023-02-01T17:20:33;15.70;;;8.10;;
65871;SDS011;52653;50.080;21.992;2023-02-01T17:23:27;15.50;;;9.50;;
65871;SDS011;52653;50.080;21.992;2023-02-01T17:26:21;18.00;;;9.40;;
65871;SDS011;52653;50.080;21.992;2023-02-01T17:29:14;15.80;;;9.40;;
65871;SDS011;52653;50.080;21.992;2023-02-01T17:32:08;22.50;;;13.20;;
65871;SDS011;52653;50.080;21.992;2023-02-01T17:35:05;22.10;;;12.60;;
65871;SDS011;52653;50.080;21.992;2023-02-01T17:37:54;16.20;;;9.30;;
65871;SDS011;52653;50.080;21.992;2023-02-01T17:40:46;15.40;;;9.00;;